Time;durP1;ratioP1;P1;durP2;ratioP2;P2;SDS_P1;SDS_P2;PMS_P1;PMS_P2;Temp;Humidity;BMP_temperature;BMP_pressure;BME280_temperature;BME280_humidity;BME280_pressure;Samples;Min_cycle;Max_cycle;Signal;HPM_P1;HPM_P2
2021/06/29 00:02:16;;;;;;;10.88;3.67;;;;;;;;;;5019896;28;20105;-63
2021/06/29 00:04:41;;;;;;;7.82;3.20;;;;;;;;;;5019338;28;20039;-64
2021/06/29 00:07:07;;;;;;;9.05;3.58;;;;;;;;;;5015940;28;20073;-64
2021/06/29 00:09:33;;;;;;;14.02;4.20;;;;;;;;;;5011740;28;20436;-63
2021/06/29 00:11:59;;;;;;;6.90;3.30;;;;;;;;;;5017045;28;20052;-64
2021/06/29 00:14:25;;;;;;;8.95;3.17;;;;;;;;;;5017649;28;20116;-64
2021/06/29 00:16:50;;;;;;;9.38;3.47;;;;;;;;;;5015479;28;20133;-64
2021/06/29 00:19:18;;;;;;;8.85;3.50;;;;;;;;;;5013928;28;20044;-64
2021/06/29 00:21:44;;;;;;;9.60;3.83;;;;;;;;;;5018998;28;20033;-64
2021/06/29 00:24:09;;;;;;;7.75;3.58;;;;;;;;;;5015835;28;20036;-64
2021/06/29 00:26:35;;;;;;;8.65;3.95;;;;;;;;;;5015481;28;20025;-64
2021/06/29 00:29:00;;;;;;;7.93;3.33;;;;;;;;;;5015928;28;20121;-64
2021/06/29 00:31:26;;;;;;;11.85;3.72;;;;;;;;;;5011036;28;20022;-64
2021/06/29 00:33:52;;;;;;;6.43;3.15;;;;;;;;;;5017409;28;20045;-65
2021/06/29 00:36:18;;;;;;;9.02;3.30;;;;;;;;;;4997943;28;20528;-64
2021/06/29 00:38:43;;;;;;;7.40;3.90;;;;;;;;;;5011597;28;20037;-64
2021/06/29 00:41:09;;;;;;;11.30;4.05;;;;;;;;;;5011654;28;20042;-64
2021/06/29 00:43:35;;;;;;;12.38;4.60;;;;;;;;;;5010568;28;20041;-64
2021/06/29 00:46:00;;;;;;;14.48;4.85;;;;;;;;;;5018273;28;20091;-64
2021/06/29 00:48:26;;;;;;;14.40;4.75;;;;;;;;;;4995131;28;20025;-65
2021/06/29 00:50:51;;;;;;;12.45;6.05;;;;;;;;;;5013973;28;20092;-65
2021/06/29 00:53:17;;;;;;;12.70;5.72;;;;;;;;;;5011416;28;20088;-65
2021/06/29 00:55:43;;;;;;;11.43;5.13;;;;;;;;;;5017097;28;20037;-64
2021/06/29 00:58:11;;;;;;;11.25;5.15;;;;;;;;;;5017363;28;20538;-65
2021/06/29 01:00:39;;;;;;;14.15;5.05;;;;;;;;;;5016289;28;20052;-64
2021/06/29 01:03:05;;;;;;;16.80;6.00;;;;;;;;;;5019261;28;20061;-64
2021/06/29 01:05:31;;;;;;;14.85;6.00;;;;;;;;;;5010709;28;20030;-64
2021/06/29 01:07:56;;;;;;;12.88;5.53;;;;;;;;;;5016736;28;20040;-64
2021/06/29 01:10:22;;;;;;;9.90;5.20;;;;;;;;;;5013434;28;20476;-65
2021/06/29 01:12:48;;;;;;;13.93;5.85;;;;;;;;;;5012265;28;20405;-65
2021/06/29 01:15:14;;;;;;;14.48;5.78;;;;;;;;;;5018485;28;20060;-65
2021/06/29 01:17:40;;;;;;;13.98;5.47;;;;;;;;;;5012348;28;20132;-65
2021/06/29 01:20:13;;;;;;;14.57;5.55;;;;;;;;;;5015542;28;20564;-65
2021/06/29 01:22:39;;;;;;;9.85;5.82;;;;;;;;;;5020100;28;20059;-67
2021/06/29 01:25:07;;;;;;;12.23;6.50;;;;;;;;;;5017637;28;20058;-66
2021/06/29 01:27:51;;;;;;;15.52;6.95;;;;;;;;;;5018109;28;20033;-66
2021/06/29 01:32:42;;;;;;;12.85;6.35;;;;;;;;;;5016999;28;20045;-65
2021/06/29 01:35:09;;;;;;;14.27;6.50;;;;;;;;;;5018394;28;20036;-66
2021/06/29 01:37:36;;;;;;;10.70;6.65;;;;;;;;;;5017555;28;20029;-67
2021/06/29 01:40:36;;;;;;;13.07;6.47;;;;;;;;;;5025941;28;20040;-66
2021/06/29 01:42:58;;;;;;;14.25;6.60;;;;;;;;;;5022886;28;20071;-66
2021/06/29 01:45:23;;;;;;;14.43;5.97;;;;;;;;;;5017293;28;20226;-66
2021/06/29 01:50:16;;;;;;;13.00;6.65;;;;;;;;;;5022143;28;20431;-66
2021/06/29 01:52:43;;;;;;;10.95;6.95;;;;;;;;;;5018637;28;20116;-66
2021/06/29 01:55:09;;;;;;;16.67;7.53;;;;;;;;;;5016002;28;20065;-67
2021/06/29 01:57:36;;;;;;;12.15;7.25;;;;;;;;;;5017357;28;20113;-67
2021/06/29 02:00:07;;;;;;;11.98;6.78;;;;;;;;;;5016498;28;20508;-67
2021/06/29 02:02:32;;;;;;;17.27;6.45;;;;;;;;;;5012150;28;20060;-67
2021/06/29 02:04:58;;;;;;;16.40;6.90;;;;;;;;;;5012116;28;20569;-66
2021/06/29 02:07:23;;;;;;;18.67;7.40;;;;;;;;;;5015439;28;20113;-65
2021/06/29 02:09:48;;;;;;;16.35;7.53;;;;;;;;;;5013422;28;20038;-66
2021/06/29 02:12:14;;;;;;;13.38;6.65;;;;;;;;;;5015052;28;20065;-65
2021/06/29 02:14:40;;;;;;;16.98;6.93;;;;;;;;;;5011540;28;20492;-66
2021/06/29 02:17:05;;;;;;;15.85;7.63;;;;;;;;;;5013793;28;20061;-66
2021/06/29 02:19:31;;;;;;;11.82;6.95;;;;;;;;;;5013871;28;20041;-66
2021/06/29 02:21:56;;;;;;;16.08;7.63;;;;;;;;;;5017121;28;20049;-66
2021/06/29 02:24:22;;;;;;;16.02;7.15;;;;;;;;;;5013924;28;20026;-66
2021/06/29 02:26:47;;;;;;;16.80;7.95;;;;;;;;;;5013515;28;20038;-65
2021/06/29 02:29:13;;;;;;;13.55;8.27;;;;;;;;;;5016149;28;20460;-66
2021/06/29 02:31:38;;;;;;;15.50;8.10;;;;;;;;;;5012265;28;20053;-65
2021/06/29 02:34:03;;;;;;;15.90;8.15;;;;;;;;;;4998712;28;20136;-67
2021/06/29 02:36:29;;;;;;;16.02;7.63;;;;;;;;;;4996676;28;20053;-67
2021/06/29 02:38:55;;;;;;;12.68;7.57;;;;;;;;;;5014331;28;20033;-66
2021/06/29 02:41:20;;;;;;;19.58;7.22;;;;;;;;;;5023886;28;20072;-66
2021/06/29 02:43:47;;;;;;;18.80;7.55;;;;;;;;;;5016293;28;20075;-67
2021/06/29 02:46:13;;;;;;;18.58;7.75;;;;;;;;;;5013826;28;20038;-67
2021/06/29 02:48:38;;;;;;;14.93;6.88;;;;;;;;;;5012603;28;20030;-66
2021/06/29 02:51:04;;;;;;;24.88;7.50;;;;;;;;;;5020860;28;20065;-67
2021/06/29 02:53:29;;;;;;;20.63;7.25;;;;;;;;;;5019470;28;20052;-66
2021/06/29 02:55:55;;;;;;;14.40;7.20;;;;;;;;;;5015982;28;20030;-67
2021/06/29 02:58:20;;;;;;;17.95;7.68;;;;;;;;;;5013866;28;20059;-66
2021/06/29 03:00:46;;;;;;;18.67;6.88;;;;;;;;;;5018814;28;20038;-66
2021/06/29 03:03:11;;;;;;;14.27;7.15;;;;;;;;;;5013673;28;20054;-66
2021/06/29 03:05:37;;;;;;;14.50;8.00;;;;;;;;;;5016168;28;20412;-65
2021/06/29 03:08:03;;;;;;;15.93;7.88;;;;;;;;;;5019788;28;20207;-66
2021/06/29 03:10:28;;;;;;;19.38;7.85;;;;;;;;;;5019495;28;20056;-66
2021/06/29 03:12:54;;;;;;;16.10;8.52;;;;;;;;;;5015732;28;20057;-66
2021/06/29 03:15:19;;;;;;;18.75;8.20;;;;;;;;;;5011185;28;20061;-68
2021/06/29 03:17:45;;;;;;;15.52;7.55;;;;;;;;;;5023773;28;20136;-66
2021/06/29 03:20:12;;;;;;;20.02;8.27;;;;;;;;;;5012803;28;20201;-68
2021/06/29 03:22:38;;;;;;;14.52;6.78;;;;;;;;;;5017813;28;20076;-66
2021/06/29 03:25:04;;;;;;;14.15;7.38;;;;;;;;;;5017634;28;20466;-66
2021/06/29 03:27:30;;;;;;;19.08;7.93;;;;;;;;;;5021722;28;20030;-66
2021/06/29 03:29:55;;;;;;;14.63;7.32;;;;;;;;;;5016406;28;20108;-66
2021/06/29 03:32:21;;;;;;;16.42;7.93;;;;;;;;;;5013335;28;20409;-66
2021/06/29 03:34:46;;;;;;;15.48;7.38;;;;;;;;;;5016292;28;20473;-66
2021/06/29 03:37:12;;;;;;;16.50;7.25;;;;;;;;;;5012934;28;20038;-65
2021/06/29 03:39:38;;;;;;;14.90;6.40;;;;;;;;;;5012772;28;20026;-66
2021/06/29 03:42:04;;;;;;;18.42;7.82;;;;;;;;;;5020745;28;20396;-66
2021/06/29 03:44:29;;;;;;;20.77;7.25;;;;;;;;;;5016055;28;20034;-66
2021/06/29 03:46:55;;;;;;;14.15;6.90;;;;;;;;;;5009972;28;20060;-66
2021/06/29 03:49:20;;;;;;;15.80;7.80;;;;;;;;;;5011171;28;20033;-65
2021/06/29 03:51:46;;;;;;;19.25;8.10;;;;;;;;;;5018479;28;20025;-67
2021/06/29 03:54:11;;;;;;;17.02;7.72;;;;;;;;;;5019621;28;20029;-66
2021/06/29 03:56:37;;;;;;;20.30;7.95;;;;;;;;;;5007160;28;21735;-66
2021/06/29 03:59:08;;;;;;;16.92;7.82;;;;;;;;;;5011683;28;20021;-67
2021/06/29 04:01:34;;;;;;;16.05;7.32;;;;;;;;;;5010070;28;20100;-67
2021/06/29 04:04:01;;;;;;;16.73;7.93;;;;;;;;;;5012091;28;20041;-66
2021/06/29 04:06:28;;;;;;;19.65;7.15;;;;;;;;;;5016593;28;20032;-67
2021/06/29 04:08:55;;;;;;;23.48;7.95;;;;;;;;;;5013262;28;20048;-66
2021/06/29 04:11:22;;;;;;;14.85;7.32;;;;;;;;;;5014408;28;20101;-66
2021/06/29 04:13:48;;;;;;;16.27;7.47;;;;;;;;;;5014075;28;20045;-66
2021/06/29 04:16:14;;;;;;;24.40;8.05;;;;;;;;;;5009994;28;20030;-65
2021/06/29 04:18:40;;;;;;;17.73;7.63;;;;;;;;;;5011298;28;20050;-66
2021/06/29 04:21:06;;;;;;;18.50;6.88;;;;;;;;;;5012908;28;20490;-66
2021/06/29 04:23:31;;;;;;;17.05;6.72;;;;;;;;;;5011655;28;20029;-66
2021/06/29 04:25:57;;;;;;;18.98;7.38;;;;;;;;;;5013605;28;20114;-66
2021/06/29 04:28:23;;;;;;;20.17;7.07;;;;;;;;;;5019491;28;20175;-66
2021/06/29 04:30:48;;;;;;;21.00;7.18;;;;;;;;;;5015533;28;20116;-66
2021/06/29 04:33:14;;;;;;;25.75;7.80;;;;;;;;;;5012637;28;20128;-66
2021/06/29 04:35:39;;;;;;;16.63;7.32;;;;;;;;;;5012463;28;20033;-66
2021/06/29 04:38:05;;;;;;;21.08;7.10;;;;;;;;;;5015700;28;20030;-66
2021/06/29 04:40:30;;;;;;;18.52;7.38;;;;;;;;;;5017203;28;20108;-66
2021/06/29 04:42:56;;;;;;;19.15;6.90;;;;;;;;;;5009623;28;20075;-66
2021/06/29 04:45:25;;;;;;;18.90;6.82;;;;;;;;;;5015370;28;20506;-66
2021/06/29 04:47:50;;;;;;;16.08;7.07;;;;;;;;;;5011834;28;20476;-66
2021/06/29 04:50:16;;;;;;;19.15;7.70;;;;;;;;;;5019698;28;20041;-69
2021/06/29 04:52:42;;;;;;;20.00;7.25;;;;;;;;;;5014994;28;20404;-66
2021/06/29 04:55:08;;;;;;;16.60;7.05;;;;;;;;;;5015847;28;22621;-66
2021/06/29 04:57:34;;;;;;;16.88;7.53;;;;;;;;;;5017674;28;20037;-66
2021/06/29 05:00:06;;;;;;;22.85;7.07;;;;;;;;;;5013831;28;20078;-66
2021/06/29 05:02:33;;;;;;;11.75;6.28;;;;;;;;;;5008744;28;20037;-65
2021/06/29 05:04:58;;;;;;;17.75;7.10;;;;;;;;;;4997174;28;20043;-66
2021/06/29 05:07:23;;;;;;;20.48;6.32;;;;;;;;;;5014561;28;20564;-66
2021/06/29 05:09:49;;;;;;;15.68;7.13;;;;;;;;;;5018170;28;20041;-66
2021/06/29 05:12:15;;;;;;;14.18;6.38;;;;;;;;;;5018201;28;20511;-66
2021/06/29 05:14:40;;;;;;;14.55;6.70;;;;;;;;;;5016272;28;20400;-66
2021/06/29 05:17:06;;;;;;;17.40;6.32;;;;;;;;;;5018009;28;20041;-66
2021/06/29 05:19:31;;;;;;;14.15;6.32;;;;;;;;;;5012534;28;20038;-67
2021/06/29 05:21:57;;;;;;;15.30;5.70;;;;;;;;;;5016011;28;20385;-67
2021/06/29 05:24:22;;;;;;;15.88;6.20;;;;;;;;;;5008537;28;20562;-66
2021/06/29 05:26:49;;;;;;;16.08;6.47;;;;;;;;;;5016175;28;20061;-66
2021/06/29 05:29:14;;;;;;;16.23;6.45;;;;;;;;;;5014034;28;20034;-67
2021/06/29 05:31:40;;;;;;;18.63;5.88;;;;;;;;;;5009699;28;20026;-67
2021/06/29 05:34:05;;;;;;;18.08;6.65;;;;;;;;;;5014084;28;20049;-67
2021/06/29 05:36:31;;;;;;;11.65;6.07;;;;;;;;;;5014766;28;20036;-66
2021/06/29 05:38:56;;;;;;;12.75;5.72;;;;;;;;;;5013277;28;20022;-68
2021/06/29 05:41:22;;;;;;;14.80;5.95;;;;;;;;;;5009295;28;20042;-68
2021/06/29 05:43:47;;;;;;;16.33;6.85;;;;;;;;;;5011513;28;20449;-67
2021/06/29 05:46:13;;;;;;;15.88;6.53;;;;;;;;;;5011951;28;20091;-67
2021/06/29 05:48:39;;;;;;;18.98;7.15;;;;;;;;;;5013575;28;20069;-67
2021/06/29 05:51:05;;;;;;;18.80;6.28;;;;;;;;;;5013574;28;20377;-67
2021/06/29 05:53:31;;;;;;;20.42;6.90;;;;;;;;;;5012141;28;20376;-64
2021/06/29 05:55:57;;;;;;;17.45;6.78;;;;;;;;;;5014223;28;20037;-64
2021/06/29 05:58:23;;;;;;;16.48;6.68;;;;;;;;;;5013782;28;20070;-64
2021/06/29 06:00:49;;;;;;;16.38;6.47;;;;;;;;;;5012676;28;20052;-64
2021/06/29 06:03:15;;;;;;;18.10;7.35;;;;;;;;;;5016511;28;20037;-64
2021/06/29 06:05:41;;;;;;;18.88;7.07;;;;;;;;;;5018065;28;20515;-64
2021/06/29 06:08:07;;;;;;;18.10;6.38;;;;;;;;;;5010441;28;20056;-64
2021/06/29 06:10:32;;;;;;;17.50;7.35;;;;;;;;;;5015899;28;20288;-63
2021/06/29 06:12:58;;;;;;;18.02;7.10;;;;;;;;;;5027363;28;20028;-63
2021/06/29 06:15:24;;;;;;;21.38;8.75;;;;;;;;;;5017405;28;20485;-63
2021/06/29 06:17:49;;;;;;;19.38;7.68;;;;;;;;;;5023510;28;20080;-63
2021/06/29 06:20:15;;;;;;;20.13;7.18;;;;;;;;;;5013645;28;20057;-64
2021/06/29 06:22:40;;;;;;;16.92;7.28;;;;;;;;;;5017966;28;20021;-67
2021/06/29 06:25:07;;;;;;;25.50;8.18;;;;;;;;;;5019502;28;20391;-66
2021/06/29 06:27:33;;;;;;;18.85;6.93;;;;;;;;;;5013525;28;20041;-67
2021/06/29 06:29:58;;;;;;;23.58;7.53;;;;;;;;;;5016234;28;20029;-67
2021/06/29 06:32:24;;;;;;;19.77;8.40;;;;;;;;;;5007882;28;20042;-67
2021/06/29 06:34:49;;;;;;;17.58;7.28;;;;;;;;;;5017472;28;20377;-67
2021/06/29 06:37:15;;;;;;;19.50;7.38;;;;;;;;;;5012047;28;20037;-67
2021/06/29 06:39:40;;;;;;;16.20;7.75;;;;;;;;;;5015961;28;20176;-67
2021/06/29 06:42:06;;;;;;;21.10;7.88;;;;;;;;;;5014160;28;20404;-67
2021/06/29 06:44:32;;;;;;;20.00;7.68;;;;;;;;;;5020390;28;20064;-68
2021/06/29 06:46:57;;;;;;;16.77;6.63;;;;;;;;;;5013958;28;20056;-68
2021/06/29 06:49:23;;;;;;;14.75;6.93;;;;;;;;;;5014288;28;20392;-66
2021/06/29 06:51:48;;;;;;;18.08;6.78;;;;;;;;;;5011991;28;20163;-62
2021/06/29 06:54:14;;;;;;;15.85;6.85;;;;;;;;;;5017054;28;20041;-65
2021/06/29 06:56:39;;;;;;;19.67;6.18;;;;;;;;;;5015821;28;20124;-66
2021/06/29 06:59:05;;;;;;;14.68;6.28;;;;;;;;;;5011673;28;20160;-66
2021/06/29 07:01:30;;;;;;;16.88;6.20;;;;;;;;;;5017087;28;20038;-65
2021/06/29 07:03:56;;;;;;;24.58;6.20;;;;;;;;;;5016693;28;20361;-66
2021/06/29 07:06:21;;;;;;;14.95;5.90;;;;;;;;;;5014430;28;20049;-65
2021/06/29 07:08:47;;;;;;;22.33;6.13;;;;;;;;;;5015000;28;20030;-64
2021/06/29 07:11:13;;;;;;;13.25;6.20;;;;;;;;;;5016343;28;20030;-64
2021/06/29 07:13:38;;;;;;;13.85;5.90;;;;;;;;;;5012974;28;20030;-65
2021/06/29 07:16:04;;;;;;;14.93;6.97;;;;;;;;;;5014054;28;20108;-66
2021/06/29 07:18:30;;;;;;;17.77;6.45;;;;;;;;;;5016228;28;20073;-65
2021/06/29 07:20:56;;;;;;;18.15;5.75;;;;;;;;;;5013107;28;20028;-67
2021/06/29 07:23:22;;;;;;;18.25;5.93;;;;;;;;;;5019951;28;20684;-63
2021/06/29 07:25:48;;;;;;;12.00;5.75;;;;;;;;;;5013110;28;20026;-64
2021/06/29 07:28:14;;;;;;;18.13;6.65;;;;;;;;;;5015036;28;20032;-62
2021/06/29 07:30:39;;;;;;;20.05;5.75;;;;;;;;;;5021674;28;20662;-61
2021/06/29 07:33:07;;;;;;;17.35;5.43;;;;;;;;;;5016546;28;20768;-65
2021/06/29 07:35:33;;;;;;;14.90;5.97;;;;;;;;;;5012501;28;20036;-66
2021/06/29 07:38:02;;;;;;;17.92;6.32;;;;;;;;;;5018662;28;20037;-66
2021/06/29 07:40:29;;;;;;;14.15;5.88;;;;;;;;;;5011375;28;20041;-67
2021/06/29 07:42:56;;;;;;;16.92;6.20;;;;;;;;;;5019622;28;20076;-68
2021/06/29 07:45:22;;;;;;;14.43;5.97;;;;;;;;;;5011171;28;20021;-67
2021/06/29 07:47:48;;;;;;;14.98;6.22;;;;;;;;;;5016684;28;20037;-67
2021/06/29 07:50:13;;;;;;;20.45;7.38;;;;;;;;;;5009057;28;20108;-67
2021/06/29 07:52:39;;;;;;;12.43;6.82;;;;;;;;;;5017644;28;20072;-63
2021/06/29 07:55:06;;;;;;;16.45;7.65;;;;;;;;;;5014555;28;20115;-63
2021/06/29 07:57:32;;;;;;;17.55;6.03;;;;;;;;;;4998409;28;20033;-63
2021/06/29 07:59:57;;;;;;;19.85;6.70;;;;;;;;;;5013770;28;20072;-62
2021/06/29 08:02:23;;;;;;;18.83;6.43;;;;;;;;;;5012662;28;20034;-62
2021/06/29 08:04:49;;;;;;;18.88;6.93;;;;;;;;;;5013261;28;20037;-63
2021/06/29 08:07:15;;;;;;;20.63;7.03;;;;;;;;;;5000418;28;20048;-63
2021/06/29 08:09:41;;;;;;;18.90;6.47;;;;;;;;;;5016902;28;20076;-63
2021/06/29 08:12:06;;;;;;;17.33;6.97;;;;;;;;;;5020714;28;20061;-62
2021/06/29 08:14:32;;;;;;;16.73;6.93;;;;;;;;;;5016497;28;20021;-62
2021/06/29 08:16:58;;;;;;;18.55;6.63;;;;;;;;;;5015448;28;20061;-63
2021/06/29 08:19:24;;;;;;;14.63;6.40;;;;;;;;;;5016206;28;20052;-62
2021/06/29 08:21:49;;;;;;;14.70;6.63;;;;;;;;;;5016986;28;20040;-63
2021/06/29 08:24:16;;;;;;;17.13;7.35;;;;;;;;;;5016926;28;20054;-67
2021/06/29 08:26:42;;;;;;;13.00;5.57;;;;;;;;;;5011353;28;20040;-66
2021/06/29 08:29:07;;;;;;;17.30;6.28;;;;;;;;;;5018175;28;20564;-66
2021/06/29 08:31:33;;;;;;;13.30;6.28;;;;;;;;;;5010183;28;20484;-68
2021/06/29 08:33:58;;;;;;;13.25;6.00;;;;;;;;;;5014244;28;20068;-66
2021/06/29 08:36:24;;;;;;;12.68;5.57;;;;;;;;;;5013823;28;20083;-68
2021/06/29 08:38:50;;;;;;;16.20;5.63;;;;;;;;;;5010881;28;20540;-67
2021/06/29 08:41:16;;;;;;;20.73;6.07;;;;;;;;;;5011048;28;20045;-68
2021/06/29 08:43:42;;;;;;;22.70;6.03;;;;;;;;;;5016364;28;20033;-67
2021/06/29 08:46:09;;;;;;;19.50;6.10;;;;;;;;;;5012725;28;20507;-68
2021/06/29 08:48:37;;;;;;;14.77;6.28;;;;;;;;;;5021066;28;20075;-68
2021/06/29 08:51:07;;;;;;;18.15;5.65;;;;;;;;;;5013593;28;20034;-68
2021/06/29 08:53:34;;;;;;;14.50;5.53;;;;;;;;;;5008885;28;20168;-64
2021/06/29 08:56:00;;;;;;;10.45;5.00;;;;;;;;;;5010933;28;20033;-64
2021/06/29 08:58:28;;;;;;;12.40;5.18;;;;;;;;;;5011619;28;20040;-64
2021/06/29 09:00:55;;;;;;;16.30;5.60;;;;;;;;;;5002654;28;20064;-64
2021/06/29 09:03:21;;;;;;;15.15;5.75;;;;;;;;;;5020699;28;20026;-64
2021/06/29 09:05:49;;;;;;;14.60;5.45;;;;;;;;;;5018257;28;20029;-64
2021/06/29 09:08:17;;;;;;;16.38;6.65;;;;;;;;;;5016740;28;20047;-64
2021/06/29 09:11:03;;;;;;;19.50;6.47;;;;;;;;;;5017180;28;20087;-64
2021/06/29 09:13:28;;;;;;;14.00;6.15;;;;;;;;;;5013040;28;20033;-65
2021/06/29 09:15:54;;;;;;;12.80;5.35;;;;;;;;;;5013572;28;20468;-64
2021/06/29 09:18:22;;;;;;;14.48;5.43;;;;;;;;;;5011815;28;20065;-64
2021/06/29 09:21:17;;;;;;;15.77;5.35;;;;;;;;;;5015560;28;20025;-64
2021/06/29 09:23:49;;;;;;;13.10;5.43;;;;;;;;;;5015145;28;20128;-67
2021/06/29 09:26:17;;;;;;;16.27;5.55;;;;;;;;;;5015332;28;20497;-68
2021/06/29 09:28:55;;;;;;;9.20;4.93;;;;;;;;;;5010065;28;20405;-68
2021/06/29 09:31:23;;;;;;;12.55;5.30;;;;;;;;;;5008772;28;20404;-68
2021/06/29 09:34:00;;;;;;;21.73;5.45;;;;;;;;;;5017303;28;20040;-67
2021/06/29 09:36:29;;;;;;;14.93;5.68;;;;;;;;;;5013269;28;20450;-67
2021/06/29 09:38:59;;;;;;;16.50;6.32;;;;;;;;;;5012312;28;20030;-67
2021/06/29 09:41:30;;;;;;;22.95;5.60;;;;;;;;;;5011332;28;20425;-67
2021/06/29 09:44:03;;;;;;;12.68;5.25;;;;;;;;;;5016451;28;20034;-67
2021/06/29 09:46:29;;;;;;;16.50;5.65;;;;;;;;;;5012661;28;20038;-67
2021/06/29 09:48:58;;;;;;;13.32;5.35;;;;;;;;;;5019178;28;20036;-67
2021/06/29 09:51:29;;;;;;;12.98;5.13;;;;;;;;;;5020131;28;20040;-67
2021/06/29 09:54:06;;;;;;;12.77;5.30;;;;;;;;;;5020373;28;20029;-65
2021/06/29 09:56:41;;;;;;;15.13;4.82;;;;;;;;;;5013778;28;20096;-65
2021/06/29 09:59:14;;;;;;;13.30;5.10;;;;;;;;;;5015725;28;20202;-65
2021/06/29 10:01:40;;;;;;;12.32;4.72;;;;;;;;;;5016322;28;20428;-65
2021/06/29 10:04:06;;;;;;;19.42;5.30;;;;;;;;;;5019503;28;20079;-65
2021/06/29 10:06:34;;;;;;;17.95;5.80;;;;;;;;;;5014389;28;20488;-64
2021/06/29 10:09:08;;;;;;;12.00;4.40;;;;;;;;;;5020793;28;20128;-65
2021/06/29 10:11:37;;;;;;;9.40;4.95;;;;;;;;;;5016542;28;20028;-65
2021/06/29 10:14:11;;;;;;;14.80;5.35;;;;;;;;;;5024669;28;20030;-65
2021/06/29 10:16:55;;;;;;;11.20;4.32;;;;;;;;;;5018078;28;20100;-65
2021/06/29 10:21:54;;;;;;;11.70;4.47;;;;;;;;;;5018899;28;20526;-65
2021/06/29 10:24:28;;;;;;;13.57;4.32;;;;;;;;;;5018955;28;20079;-69
2021/06/29 10:26:56;;;;;;;11.07;3.60;;;;;;;;;;5019457;28;20028;-69
2021/06/29 10:29:23;;;;;;;11.68;4.10;;;;;;;;;;5017928;28;20069;-68
2021/06/29 10:31:52;;;;;;;10.80;4.30;;;;;;;;;;5018230;28;20034;-69
2021/06/29 10:34:18;;;;;;;10.38;4.25;;;;;;;;;;5013090;28;20026;-69
2021/06/29 10:36:54;;;;;;;9.32;3.60;;;;;;;;;;5024175;28;20029;-69
2021/06/29 10:39:24;;;;;;;9.07;3.67;;;;;;;;;;5016577;28;20025;-69
2021/06/29 10:41:59;;;;;;;11.70;4.07;;;;;;;;;;5014984;28;20413;-68
2021/06/29 10:44:26;;;;;;;10.13;3.72;;;;;;;;;;5014146;28;20034;-69
2021/06/29 10:46:55;;;;;;;7.68;3.17;;;;;;;;;;5020492;28;20033;-68
2021/06/29 10:49:36;;;;;;;7.43;2.97;;;;;;;;;;5023123;28;20056;-68
2021/06/29 10:52:22;;;;;;;12.90;3.72;;;;;;;;;;5018585;28;20037;-68
2021/06/29 10:54:53;;;;;;;7.88;2.80;;;;;;;;;;5020794;28;20072;-64
2021/06/29 10:57:23;;;;;;;8.13;3.55;;;;;;;;;;5021217;28;20056;-64
2021/06/29 10:59:51;;;;;;;9.52;3.38;;;;;;;;;;5012132;28;20029;-64
2021/06/29 11:03:00;;;;;;;12.13;3.80;;;;;;;;;;5027293;28;20033;-64
2021/06/29 11:05:28;;;;;;;12.75;3.35;;;;;;;;;;5019478;28;20045;-65
2021/06/29 11:08:15;;;;;;;11.60;3.75;;;;;;;;;;5020930;28;20029;-64
2021/06/29 11:10:48;;;;;;;12.25;3.10;;;;;;;;;;5016142;28;20085;-65
2021/06/29 11:13:15;;;;;;;9.43;3.38;;;;;;;;;;5019919;28;20505;-65
2021/06/29 11:15:45;;;;;;;10.63;2.90;;;;;;;;;;5019260;28;20036;-65
2021/06/29 11:18:12;;;;;;;10.10;3.15;;;;;;;;;;5014881;28;20054;-65
2021/06/29 11:20:49;;;;;;;8.35;3.40;;;;;;;;;;5023317;28;20100;-64
2021/06/29 11:23:23;;;;;;;10.95;3.67;;;;;;;;;;5023332;28;20375;-65
2021/06/29 11:26:16;;;;;;;12.20;3.65;;;;;;;;;;5024205;28;20276;-65
2021/06/29 11:28:50;;;;;;;14.57;4.47;;;;;;;;;;5015405;28;20037;-63
2021/06/29 11:31:22;;;;;;;9.45;3.33;;;;;;;;;;5022103;28;20017;-64
2021/06/29 11:33:58;;;;;;;8.35;2.60;;;;;;;;;;5009067;28;20029;-69
2021/06/29 11:36:23;;;;;;;9.25;3.10;;;;;;;;;;5016144;28;20041;-68
2021/06/29 11:38:53;;;;;;;10.35;3.10;;;;;;;;;;5012965;28;20374;-68
2021/06/29 11:41:28;;;;;;;13.55;2.95;;;;;;;;;;5019060;28;20138;-68
2021/06/29 11:44:06;;;;;;;9.18;2.83;;;;;;;;;;5017234;28;20057;-67
2021/06/29 11:46:53;;;;;;;14.65;3.38;;;;;;;;;;5010879;28;20037;-69
2021/06/29 11:49:32;;;;;;;15.55;3.28;;;;;;;;;;5014714;28;20025;-68
2021/06/29 11:52:00;;;;;;;11.43;4.40;;;;;;;;;;5011765;28;20022;-68
2021/06/29 11:54:28;;;;;;;6.88;3.22;;;;;;;;;;5016374;28;20092;-67
2021/06/29 11:56:56;;;;;;;11.23;3.13;;;;;;;;;;5000503;28;20034;-67
2021/06/29 11:59:31;;;;;;;9.27;2.88;;;;;;;;;;5010970;28;20559;-68
2021/06/29 12:02:05;;;;;;;9.73;2.90;;;;;;;;;;5009723;28;20124;-68
2021/06/29 12:04:32;;;;;;;11.77;3.50;;;;;;;;;;5015906;28;20116;-69
2021/06/29 12:07:08;;;;;;;8.02;2.95;;;;;;;;;;5018045;28;20508;-67
2021/06/29 12:09:36;;;;;;;13.57;2.97;;;;;;;;;;5013069;28;20112;-67
2021/06/29 12:12:23;;;;;;;4.82;2.60;;;;;;;;;;5022193;28;20029;-68
2021/06/29 12:15:05;;;;;;;8.25;3.22;;;;;;;;;;5017937;28;20025;-67
2021/06/29 12:17:32;;;;;;;7.40;2.78;;;;;;;;;;5019283;28;20391;-67
2021/06/29 12:20:00;;;;;;;10.20;3.28;;;;;;;;;;5015583;28;20041;-67
2021/06/29 12:22:30;;;;;;;6.88;3.13;;;;;;;;;;5016535;28;20126;-68
2021/06/29 12:24:56;;;;;;;7.40;2.92;;;;;;;;;;5009345;28;20618;-67
2021/06/29 12:27:22;;;;;;;7.50;3.00;;;;;;;;;;5011839;28;20129;-68
2021/06/29 12:29:47;;;;;;;7.43;3.08;;;;;;;;;;5018246;28;20120;-67
2021/06/29 12:32:24;;;;;;;7.35;2.95;;;;;;;;;;5020097;28;20122;-67
2021/06/29 12:34:51;;;;;;;5.85;3.28;;;;;;;;;;5017353;28;20033;-68
2021/06/29 12:37:17;;;;;;;10.60;3.58;;;;;;;;;;5017823;28;20029;-67
2021/06/29 12:39:43;;;;;;;10.73;3.40;;;;;;;;;;5013734;28;20049;-68
2021/06/29 12:42:13;;;;;;;10.05;4.38;;;;;;;;;;5014783;28;20037;-68
2021/06/29 12:44:39;;;;;;;9.73;3.50;;;;;;;;;;5017777;28;20044;-68
2021/06/29 12:47:05;;;;;;;12.82;3.28;;;;;;;;;;5011957;28;20121;-69
2021/06/29 12:49:33;;;;;;;9.75;3.15;;;;;;;;;;5018044;28;20148;-69
2021/06/29 12:52:09;;;;;;;10.70;3.42;;;;;;;;;;5013859;28;20030;-68
2021/06/29 12:54:35;;;;;;;12.90;3.88;;;;;;;;;;5007845;28;20061;-68
2021/06/29 12:57:09;;;;;;;12.88;3.50;;;;;;;;;;5011935;28;20026;-68
2021/06/29 12:59:39;;;;;;;9.98;2.97;;;;;;;;;;5015220;28;20048;-68
2021/06/29 13:02:16;;;;;;;10.52;2.90;;;;;;;;;;5009219;28;20326;-67
2021/06/29 13:04:58;;;;;;;16.25;2.97;;;;;;;;;;5009362;28;20518;-68
2021/06/29 13:07:24;;;;;;;9.95;3.13;;;;;;;;;;5011766;28;20095;-68
2021/06/29 13:09:50;;;;;;;10.27;2.40;;;;;;;;;;5011690;28;20428;-68
2021/06/29 13:12:19;;;;;;;8.48;3.03;;;;;;;;;;5013545;28;20033;-67
2021/06/29 13:14:56;;;;;;;12.90;3.08;;;;;;;;;;5016942;28;20033;-68
2021/06/29 13:17:22;;;;;;;8.35;2.65;;;;;;;;;;5010739;28;20040;-68
2021/06/29 13:19:47;;;;;;;10.57;3.42;;;;;;;;;;5012907;28;20042;-68
2021/06/29 13:22:14;;;;;;;7.47;2.70;;;;;;;;;;5017016;28;20038;-68
2021/06/29 13:24:44;;;;;;;14.43;2.70;;;;;;;;;;5016927;28;20407;-68
2021/06/29 13:27:11;;;;;;;7.63;2.70;;;;;;;;;;5023263;28;20025;-68
2021/06/29 13:29:39;;;;;;;9.35;2.55;;;;;;;;;;5016499;28;20033;-67
2021/06/29 13:32:15;;;;;;;8.77;2.70;;;;;;;;;;5021844;28;20033;-68
2021/06/29 13:34:40;;;;;;;8.43;2.53;;;;;;;;;;5018055;28;20030;-68
2021/06/29 13:37:37;;;;;;;9.25;2.70;;;;;;;;;;5017468;28;20399;-69
2021/06/29 13:40:20;;;;;;;19.83;3.50;;;;;;;;;;5020836;28;20060;-68
2021/06/29 13:42:47;;;;;;;9.65;2.63;;;;;;;;;;5021053;28;20025;-67
2021/06/29 13:45:13;;;;;;;13.23;3.50;;;;;;;;;;5014556;28;20033;-67
2021/06/29 13:47:53;;;;;;;5.60;2.67;;;;;;;;;;5014742;28;20394;-67
2021/06/29 13:50:19;;;;;;;7.90;3.30;;;;;;;;;;5019389;28;20034;-68
2021/06/29 13:52:55;;;;;;;14.68;3.20;;;;;;;;;;5018621;28;20053;-68
2021/06/29 13:55:21;;;;;;;7.97;2.83;;;;;;;;;;5019395;28;20668;-68
2021/06/29 13:57:47;;;;;;;8.38;2.75;;;;;;;;;;5018814;28;20038;-67
2021/06/29 14:00:22;;;;;;;11.73;3.05;;;;;;;;;;5020572;28;20045;-67
2021/06/29 14:03:07;;;;;;;10.20;2.97;;;;;;;;;;5017824;28;20044;-67
2021/06/29 14:05:45;;;;;;;10.88;3.08;;;;;;;;;;5018792;28;20484;-67
2021/06/29 14:08:11;;;;;;;10.00;2.92;;;;;;;;;;5017585;28;20041;-66
2021/06/29 14:10:37;;;;;;;12.00;2.85;;;;;;;;;;5015203;28;20397;-68
2021/06/29 14:13:03;;;;;;;9.98;3.38;;;;;;;;;;5012242;28;20064;-68
2021/06/29 14:15:29;;;;;;;9.23;3.22;;;;;;;;;;5022227;28;20034;-68
2021/06/29 14:17:54;;;;;;;14.25;3.95;;;;;;;;;;5026290;28;20033;-67
2021/06/29 14:20:20;;;;;;;9.95;3.22;;;;;;;;;;5024832;28;20029;-67
2021/06/29 14:22:45;;;;;;;13.85;4.07;;;;;;;;;;5021169;28;20451;-67
2021/06/29 14:25:11;;;;;;;16.90;3.47;;;;;;;;;;5017854;28;20117;-67
2021/06/29 14:27:37;;;;;;;11.75;3.42;;;;;;;;;;5024539;28;20053;-66
2021/06/29 14:30:04;;;;;;;10.73;3.53;;;;;;;;;;5024781;28;20088;-67
2021/06/29 14:32:30;;;;;;;10.52;3.78;;;;;;;;;;5023499;28;20047;-67
2021/06/29 14:34:55;;;;;;;9.88;3.40;;;;;;;;;;5018148;28;20117;-68
2021/06/29 14:37:21;;;;;;;7.88;3.33;;;;;;;;;;5015983;28;20076;-68
2021/06/29 14:39:46;;;;;;;11.43;3.67;;;;;;;;;;5017095;28;20033;-68
2021/06/29 14:42:12;;;;;;;11.82;3.60;;;;;;;;;;5019767;28;20109;-68
2021/06/29 14:44:37;;;;;;;19.55;3.80;;;;;;;;;;5020043;28;20025;-69
2021/06/29 14:47:03;;;;;;;8.85;3.65;;;;;;;;;;5016623;28;20445;-68